sensor_id;sensor_type;location;lat;lon;timestamp;P1;durP1;ratioP1;P2;durP2;ratioP2
44728;SDS011;30457;53.590;9.922;2024-03-22T00:01:57;18.38;;;8.55;;
44728;SDS011;30457;53.590;9.922;2024-03-22T00:06:23;10.73;;;6.65;;
44728;SDS011;30457;53.590;9.922;2024-03-22T00:10:48;8.68;;;6.35;;
44728;SDS011;30457;53.590;9.922;2024-03-22T00:15:14;9.13;;;6.10;;
44728;SDS011;30457;53.590;9.922;2024-03-22T00:19:39;11.20;;;7.10;;
44728;SDS011;30457;53.590;9.922;2024-03-22T00:24:05;10.13;;;6.15;;
44728;SDS011;30457;53.590;9.922;2024-03-22T00:28:31;13.07;;;5.97;;
44728;SDS011;30457;53.590;9.922;2024-03-22T00:32:56;23.85;;;7.10;;
44728;SDS011;30457;53.590;9.922;2024-03-22T00:37:22;11.18;;;6.93;;
44728;SDS011;30457;53.590;9.922;2024-03-22T00:41:47;10.02;;;6.85;;
44728;SDS011;30457;53.590;9.922;2024-03-22T00:46:13;15.30;;;6.72;;
44728;SDS011;30457;53.590;9.922;2024-03-22T00:50:39;12.82;;;6.45;;
44728;SDS011;30457;53.590;9.922;2024-03-22T00:55:04;10.57;;;6.93;;
44728;SDS011;30457;53.590;9.922;2024-03-22T00:59:30;15.43;;;7.13;;
44728;SDS011;30457;53.590;9.922;2024-03-22T01:03:55;9.75;;;6.38;;
44728;SDS011;30457;53.590;9.922;2024-03-22T01:08:21;9.82;;;6.60;;
44728;SDS011;30457;53.590;9.922;2024-03-22T01:12:47;15.05;;;7.50;;
44728;SDS011;30457;53.590;9.922;2024-03-22T01:17:12;11.57;;;6.00;;
44728;SDS011;30457;53.590;9.922;2024-03-22T01:21:39;9.95;;;7.10;;
44728;SDS011;30457;53.590;9.922;2024-03-22T01:26:04;9.35;;;7.18;;
44728;SDS011;30457;53.590;9.922;2024-03-22T01:30:30;17.00;;;8.20;;
44728;SDS011;30457;53.590;9.922;2024-03-22T01:34:56;10.30;;;6.80;;
44728;SDS011;30457;53.590;9.922;2024-03-22T01:39:22;14.30;;;7.90;;
44728;SDS011;30457;53.590;9.922;2024-03-22T01:43:48;11.07;;;7.40;;
44728;SDS011;30457;53.590;9.922;2024-03-22T01:48:13;13.98;;;7.80;;
44728;SDS011;30457;53.590;9.922;2024-03-22T01:52:39;12.98;;;7.40;;
44728;SDS011;30457;53.590;9.922;2024-03-22T01:57:05;13.50;;;7.75;;
44728;SDS011;30457;53.590;9.922;2024-03-22T02:01:32;12.95;;;8.88;;
44728;SDS011;30457;53.590;9.922;2024-03-22T02:05:58;12.38;;;8.20;;
44728;SDS011;30457;53.590;9.922;2024-03-22T02:10:24;14.50;;;9.00;;
44728;SDS011;30457;53.590;9.922;2024-03-22T02:14:50;16.20;;;8.63;;
44728;SDS011;30457;53.590;9.922;2024-03-22T02:19:15;13.30;;;8.95;;
44728;SDS011;30457;53.590;9.922;2024-03-22T02:23:41;16.13;;;9.55;;
44728;SDS011;30457;53.590;9.922;2024-03-22T02:28:06;15.25;;;9.88;;
44728;SDS011;30457;53.590;9.922;2024-03-22T02:32:32;15.18;;;9.57;;
44728;SDS011;30457;53.590;9.922;2024-03-22T02:36:57;17.05;;;10.30;;
44728;SDS011;30457;53.590;9.922;2024-03-22T02:41:23;16.45;;;10.70;;
44728;SDS011;30457;53.590;9.922;2024-03-22T02:45:49;20.23;;;11.48;;
44728;SDS011;30457;53.590;9.922;2024-03-22T02:50:14;17.50;;;11.48;;
44728;SDS011;30457;53.590;9.922;2024-03-22T02:54:40;16.63;;;10.65;;
44728;SDS011;30457;53.590;9.922;2024-03-22T02:59:06;19.83;;;10.65;;
44728;SDS011;30457;53.590;9.922;2024-03-22T03:03:31;17.58;;;10.73;;
44728;SDS011;30457;53.590;9.922;2024-03-22T03:07:57;20.13;;;11.10;;
44728;SDS011;30457;53.590;9.922;2024-03-22T03:12:23;21.65;;;13.05;;
44728;SDS011;30457;53.590;9.922;2024-03-22T03:16:48;23.52;;;13.15;;
44728;SDS011;30457;53.590;9.922;2024-03-22T03:21:14;20.83;;;12.35;;
44728;SDS011;30457;53.590;9.922;2024-03-22T03:25:39;20.60;;;12.70;;
44728;SDS011;30457;53.590;9.922;2024-03-22T03:30:05;20.88;;;13.07;;
44728;SDS011;30457;53.590;9.922;2024-03-22T03:34:31;19.58;;;12.15;;
44728;SDS011;30457;53.590;9.922;2024-03-22T03:38:57;21.10;;;12.80;;
44728;SDS011;30457;53.590;9.922;2024-03-22T03:43:22;22.95;;;13.25;;
44728;SDS011;30457;53.590;9.922;2024-03-22T03:47:48;22.33;;;14.02;;
44728;SDS011;30457;53.590;9.922;2024-03-22T03:52:14;21.17;;;14.10;;
44728;SDS011;30457;53.590;9.922;2024-03-22T03:56:39;24.40;;;14.68;;
44728;SDS011;30457;53.590;9.922;2024-03-22T04:01:06;28.08;;;14.57;;
44728;SDS011;30457;53.590;9.922;2024-03-22T04:05:32;25.65;;;15.93;;
44728;SDS011;30457;53.590;9.922;2024-03-22T04:09:57;24.00;;;14.40;;
44728;SDS011;30457;53.590;9.922;2024-03-22T04:14:25;24.25;;;15.23;;
44728;SDS011;30457;53.590;9.922;2024-03-22T04:18:51;26.70;;;16.30;;
44728;SDS011;30457;53.590;9.922;2024-03-22T04:23:17;27.83;;;16.23;;
44728;SDS011;30457;53.590;9.922;2024-03-22T04:27:43;26.33;;;15.75;;
44728;SDS011;30457;53.590;9.922;2024-03-22T04:32:09;27.63;;;15.25;;
44728;SDS011;30457;53.590;9.922;2024-03-22T04:36:34;27.98;;;15.65;;
44728;SDS011;30457;53.590;9.922;2024-03-22T04:41:00;27.15;;;15.15;;
44728;SDS011;30457;53.590;9.922;2024-03-22T04:45:26;28.45;;;16.10;;
44728;SDS011;30457;53.590;9.922;2024-03-22T04:49:52;29.38;;;16.40;;
44728;SDS011;30457;53.590;9.922;2024-03-22T04:54:17;28.40;;;16.75;;
44728;SDS011;30457;53.590;9.922;2024-03-22T04:58:43;30.33;;;16.23;;
44728;SDS011;30457;53.590;9.922;2024-03-22T05:03:08;27.77;;;17.05;;
44728;SDS011;30457;53.590;9.922;2024-03-22T05:07:34;29.40;;;17.45;;
44728;SDS011;30457;53.590;9.922;2024-03-22T05:11:59;35.35;;;17.73;;
44728;SDS011;30457;53.590;9.922;2024-03-22T05:16:25;30.13;;;17.45;;
44728;SDS011;30457;53.590;9.922;2024-03-22T05:20:50;29.15;;;16.83;;
44728;SDS011;30457;53.590;9.922;2024-03-22T05:25:17;35.17;;;16.25;;
44728;SDS011;30457;53.590;9.922;2024-03-22T05:29:42;28.13;;;16.88;;
44728;SDS011;30457;53.590;9.922;2024-03-22T05:34:08;32.20;;;17.90;;
44728;SDS011;30457;53.590;9.922;2024-03-22T05:38:33;34.03;;;18.08;;
44728;SDS011;30457;53.590;9.922;2024-03-22T05:42:59;32.90;;;17.73;;
44728;SDS011;30457;53.590;9.922;2024-03-22T05:47:25;35.83;;;18.33;;
44728;SDS011;30457;53.590;9.922;2024-03-22T05:51:51;32.88;;;19.13;;
44728;SDS011;30457;53.590;9.922;2024-03-22T05:56:16;30.08;;;18.45;;
44728;SDS011;30457;53.590;9.922;2024-03-22T06:00:45;29.17;;;17.48;;
44728;SDS011;30457;53.590;9.922;2024-03-22T06:05:10;29.98;;;17.55;;
44728;SDS011;30457;53.590;9.922;2024-03-22T06:09:36;33.72;;;18.63;;
44728;SDS011;30457;53.590;9.922;2024-03-22T06:14:02;34.97;;;18.85;;
44728;SDS011;30457;53.590;9.922;2024-03-22T06:18:28;36.67;;;18.98;;
44728;SDS011;30457;53.590;9.922;2024-03-22T06:22:53;32.05;;;18.60;;
44728;SDS011;30457;53.590;9.922;2024-03-22T06:27:19;30.48;;;17.63;;
44728;SDS011;30457;53.590;9.922;2024-03-22T06:31:44;30.05;;;17.92;;
44728;SDS011;30457;53.590;9.922;2024-03-22T06:36:10;29.83;;;17.70;;
44728;SDS011;30457;53.590;9.922;2024-03-22T06:40:36;32.55;;;17.13;;
44728;SDS011;30457;53.590;9.922;2024-03-22T06:45:02;32.05;;;17.52;;
44728;SDS011;30457;53.590;9.922;2024-03-22T06:49:27;33.35;;;17.20;;
44728;SDS011;30457;53.590;9.922;2024-03-22T06:53:53;37.00;;;18.70;;
44728;SDS011;30457;53.590;9.922;2024-03-22T06:58:19;33.95;;;20.15;;
44728;SDS011;30457;53.590;9.922;2024-03-22T07:02:44;33.72;;;19.05;;
44728;SDS011;30457;53.590;9.922;2024-03-22T07:07:10;33.08;;;18.33;;
44728;SDS011;30457;53.590;9.922;2024-03-22T07:11:35;31.92;;;18.27;;
44728;SDS011;30457;53.590;9.922;2024-03-22T07:16:01;31.85;;;17.08;;
44728;SDS011;30457;53.590;9.922;2024-03-22T07:20:28;36.67;;;18.90;;
44728;SDS011;30457;53.590;9.922;2024-03-22T07:24:55;34.60;;;19.77;;
44728;SDS011;30457;53.590;9.922;2024-03-22T07:29:20;35.65;;;19.55;;
44728;SDS011;30457;53.590;9.922;2024-03-22T07:33:46;33.35;;;18.98;;
44728;SDS011;30457;53.590;9.922;2024-03-22T07:38:12;33.47;;;19.02;;
44728;SDS011;30457;53.590;9.922;2024-03-22T07:42:37;37.17;;;20.35;;
44728;SDS011;30457;53.590;9.922;2024-03-22T07:47:03;35.22;;;20.00;;
44728;SDS011;30457;53.590;9.922;2024-03-22T07:51:28;37.42;;;20.15;;
44728;SDS011;30457;53.590;9.922;2024-03-22T07:55:54;39.40;;;20.45;;
44728;SDS011;30457;53.590;9.922;2024-03-22T08:00:20;37.05;;;21.17;;
44728;SDS011;30457;53.590;9.922;2024-03-22T08:04:45;35.35;;;20.13;;
44728;SDS011;30457;53.590;9.922;2024-03-22T08:09:11;36.83;;;20.15;;
44728;SDS011;30457;53.590;9.922;2024-03-22T08:13:36;34.78;;;19.27;;
44728;SDS011;30457;53.590;9.922;2024-03-22T08:18:02;40.63;;;21.23;;
44728;SDS011;30457;53.590;9.922;2024-03-22T08:22:29;36.53;;;20.05;;
44728;SDS011;30457;53.590;9.922;2024-03-22T08:26:54;34.30;;;18.80;;
44728;SDS011;30457;53.590;9.922;2024-03-22T08:31:20;37.58;;;19.83;;
44728;SDS011;30457;53.590;9.922;2024-03-22T08:35:50;33.95;;;19.38;;
44728;SDS011;30457;53.590;9.922;2024-03-22T08:40:16;38.92;;;19.27;;
44728;SDS011;30457;53.590;9.922;2024-03-22T08:44:41;36.00;;;19.70;;
44728;SDS011;30457;53.590;9.922;2024-03-22T08:49:07;35.58;;;20.35;;
44728;SDS011;30457;53.590;9.922;2024-03-22T08:53:33;31.45;;;18.80;;
44728;SDS011;30457;53.590;9.922;2024-03-22T08:57:59;36.72;;;19.77;;
44728;SDS011;30457;53.590;9.922;2024-03-22T09:02:24;37.03;;;20.42;;
44728;SDS011;30457;53.590;9.922;2024-03-22T09:06:50;41.28;;;20.85;;
44728;SDS011;30457;53.590;9.922;2024-03-22T09:11:15;37.30;;;19.48;;
44728;SDS011;30457;53.590;9.922;2024-03-22T09:15:43;34.80;;;19.83;;
44728;SDS011;30457;53.590;9.922;2024-03-22T09:20:09;33.08;;;18.52;;
44728;SDS011;30457;53.590;9.922;2024-03-22T09:24:35;36.88;;;19.95;;
44728;SDS011;30457;53.590;9.922;2024-03-22T09:29:00;32.50;;;18.90;;
44728;SDS011;30457;53.590;9.922;2024-03-22T09:33:26;37.20;;;18.90;;
44728;SDS011;30457;53.590;9.922;2024-03-22T09:37:52;28.83;;;17.27;;
44728;SDS011;30457;53.590;9.922;2024-03-22T09:42:18;36.65;;;19.83;;
44728;SDS011;30457;53.590;9.922;2024-03-22T09:46:43;34.88;;;16.90;;
44728;SDS011;30457;53.590;9.922;2024-03-22T09:51:11;36.47;;;19.45;;
44728;SDS011;30457;53.590;9.922;2024-03-22T09:55:37;31.65;;;18.02;;
44728;SDS011;30457;53.590;9.922;2024-03-22T10:00:07;26.85;;;15.60;;
44728;SDS011;30457;53.590;9.922;2024-03-22T10:04:40;31.42;;;15.07;;
44728;SDS011;30457;53.590;9.922;2024-03-22T10:09:06;26.45;;;15.40;;
44728;SDS011;30457;53.590;9.922;2024-03-22T10:13:33;26.58;;;15.32;;
44728;SDS011;30457;53.590;9.922;2024-03-22T10:17:59;24.15;;;13.90;;
44728;SDS011;30457;53.590;9.922;2024-03-22T10:22:25;24.30;;;14.13;;
44728;SDS011;30457;53.590;9.922;2024-03-22T10:26:50;24.90;;;14.80;;
44728;SDS011;30457;53.590;9.922;2024-03-22T10:31:16;23.02;;;13.40;;
44728;SDS011;30457;53.590;9.922;2024-03-22T10:35:44;19.08;;;11.85;;
44728;SDS011;30457;53.590;9.922;2024-03-22T10:40:10;23.70;;;11.75;;
44728;SDS011;30457;53.590;9.922;2024-03-22T10:44:36;20.00;;;11.25;;
44728;SDS011;30457;53.590;9.922;2024-03-22T10:49:02;17.77;;;10.48;;
44728;SDS011;30457;53.590;9.922;2024-03-22T10:53:31;13.68;;;8.82;;
44728;SDS011;30457;53.590;9.922;2024-03-22T10:57:58;14.52;;;8.82;;
44728;SDS011;30457;53.590;9.922;2024-03-22T11:02:24;13.85;;;8.70;;
44728;SDS011;30457;53.590;9.922;2024-03-22T11:06:52;11.63;;;7.30;;
44728;SDS011;30457;53.590;9.922;2024-03-22T11:11:22;11.73;;;7.28;;
44728;SDS011;30457;53.590;9.922;2024-03-22T11:15:48;12.75;;;7.22;;
44728;SDS011;30457;53.590;9.922;2024-03-22T11:20:15;11.93;;;6.22;;
44728;SDS011;30457;53.590;9.922;2024-03-22T11:24:41;13.07;;;6.88;;
44728;SDS011;30457;53.590;9.922;2024-03-22T11:29:06;10.20;;;6.45;;
44728;SDS011;30457;53.590;9.922;2024-03-22T11:33:33;8.57;;;5.47;;
44728;SDS011;30457;53.590;9.922;2024-03-22T11:37:59;7.03;;;5.05;;
44728;SDS011;30457;53.590;9.922;2024-03-22T11:42:24;9.07;;;6.15;;
44728;SDS011;30457;53.590;9.922;2024-03-22T11:46:50;7.78;;;5.20;;
44728;SDS011;30457;53.590;9.922;2024-03-22T11:51:16;6.70;;;5.50;;
44728;SDS011;30457;53.590;9.922;2024-03-22T11:55:42;7.60;;;4.35;;
44728;SDS011;30457;53.590;9.922;2024-03-22T12:00:08;6.72;;;4.72;;
44728;SDS011;30457;53.590;9.922;2024-03-22T12:04:40;7.30;;;4.93;;
44728;SDS011;30457;53.590;9.922;2024-03-22T12:09:15;6.53;;;4.75;;
44728;SDS011;30457;53.590;9.922;2024-03-22T12:13:40;6.82;;;5.13;;
44728;SDS011;30457;53.590;9.922;2024-03-22T12:18:06;10.15;;;5.82;;
44728;SDS011;30457;53.590;9.922;2024-03-22T12:22:31;7.30;;;4.85;;
44728;SDS011;30457;53.590;9.922;2024-03-22T12:26:57;5.97;;;4.10;;
44728;SDS011;30457;53.590;9.922;2024-03-22T12:31:22;5.75;;;3.63;;
44728;SDS011;30457;53.590;9.922;2024-03-22T12:35:48;6.45;;;3.60;;
44728;SDS011;30457;53.590;9.922;2024-03-22T12:40:14;5.10;;;2.97;;
44728;SDS011;30457;53.590;9.922;2024-03-22T12:44:39;3.70;;;3.20;;
44728;SDS011;30457;53.590;9.922;2024-03-22T12:49:05;4.25;;;3.20;;
44728;SDS011;30457;53.590;9.922;2024-03-22T12:53:30;3.15;;;2.63;;
44728;SDS011;30457;53.590;9.922;2024-03-22T12:57:56;4.80;;;2.70;;
44728;SDS011;30457;53.590;9.922;2024-03-22T13:02:22;1.75;;;1.60;;
44728;SDS011;30457;53.590;9.922;2024-03-22T13:06:49;1.30;;;1.20;;
44728;SDS011;30457;53.590;9.922;2024-03-22T13:11:15;1.55;;;1.20;;
44728;SDS011;30457;53.590;9.922;2024-03-22T13:15:42;1.85;;;1.20;;
44728;SDS011;30457;53.590;9.922;2024-03-22T13:20:08;1.52;;;1.42;;
44728;SDS011;30457;53.590;9.922;2024-03-22T13:24:39;1.67;;;1.15;;
44728;SDS011;30457;53.590;9.922;2024-03-22T13:29:05;1.25;;;1.15;;
44728;SDS011;30457;53.590;9.922;2024-03-22T13:33:31;2.45;;;1.20;;
44728;SDS011;30457;53.590;9.922;2024-03-22T13:37:57;1.30;;;1.17;;
44728;SDS011;30457;53.590;9.922;2024-03-22T13:42:23;1.17;;;1.08;;
44728;SDS011;30457;53.590;9.922;2024-03-22T13:46:52;0.90;;;0.90;;
44728;SDS011;30457;53.590;9.922;2024-03-22T13:51:18;2.45;;;1.30;;
44728;SDS011;30457;53.590;9.922;2024-03-22T13:55:43;1.77;;;1.30;;
44728;SDS011;30457;53.590;9.922;2024-03-22T14:00:10;1.20;;;1.00;;
44728;SDS011;30457;53.590;9.922;2024-03-22T14:04:39;0.88;;;0.82;;
44728;SDS011;30457;53.590;9.922;2024-03-22T14:09:05;1.20;;;1.10;;
44728;SDS011;30457;53.590;9.922;2024-03-22T14:13:32;1.58;;;1.48;;
44728;SDS011;30457;53.590;9.922;2024-03-22T14:17:58;2.00;;;1.30;;
44728;SDS011;30457;53.590;9.922;2024-03-22T14:22:24;0.93;;;0.80;;
44728;SDS011;30457;53.590;9.922;2024-03-22T14:26:49;1.25;;;0.80;;
44728;SDS011;30457;53.590;9.922;2024-03-22T14:31:15;2.22;;;0.95;;
44728;SDS011;30457;53.590;9.922;2024-03-22T14:35:41;4.93;;;1.30;;
44728;SDS011;30457;53.590;9.922;2024-03-22T14:40:06;3.40;;;1.55;;
44728;SDS011;30457;53.590;9.922;2024-03-22T14:44:35;6.43;;;1.55;;
44728;SDS011;30457;53.590;9.922;2024-03-22T14:49:01;5.43;;;1.60;;
44728;SDS011;30457;53.590;9.922;2024-03-22T14:53:26;10.38;;;2.13;;
44728;SDS011;30457;53.590;9.922;2024-03-22T14:57:52;11.68;;;2.75;;
44728;SDS011;30457;53.590;9.922;2024-03-22T15:02:17;8.18;;;2.75;;
44728;SDS011;30457;53.590;9.922;2024-03-22T15:06:43;6.40;;;2.00;;
44728;SDS011;30457;53.590;9.922;2024-03-22T15:11:10;7.10;;;1.98;;
44728;SDS011;30457;53.590;9.922;2024-03-22T15:15:35;7.55;;;1.98;;
44728;SDS011;30457;53.590;9.922;2024-03-22T15:20:01;13.02;;;1.70;;
44728;SDS011;30457;53.590;9.922;2024-03-22T15:24:29;9.68;;;1.88;;
44728;SDS011;30457;53.590;9.922;2024-03-22T15:28:54;11.23;;;2.00;;
44728;SDS011;30457;53.590;9.922;2024-03-22T15:33:20;10.10;;;1.58;;
44728;SDS011;30457;53.590;9.922;2024-03-22T15:37:45;10.80;;;2.42;;
44728;SDS011;30457;53.590;9.922;2024-03-22T15:42:11;12.00;;;3.53;;
44728;SDS011;30457;53.590;9.922;2024-03-22T15:46:37;16.27;;;3.42;;
44728;SDS011;30457;53.590;9.922;2024-03-22T15:51:02;13.20;;;3.28;;
44728;SDS011;30457;53.590;9.922;2024-03-22T15:55:28;11.43;;;2.05;;
44728;SDS011;30457;53.590;9.922;2024-03-22T15:59:56;10.15;;;1.95;;
44728;SDS011;30457;53.590;9.922;2024-03-22T16:04:22;17.15;;;3.40;;
44728;SDS011;30457;53.590;9.922;2024-03-22T16:08:47;15.90;;;4.15;;
44728;SDS011;30457;53.590;9.922;2024-03-22T16:13:13;15.13;;;3.25;;
44728;SDS011;30457;53.590;9.922;2024-03-22T16:17:39;15.23;;;2.80;;
44728;SDS011;30457;53.590;9.922;2024-03-22T16:22:05;17.08;;;3.42;;
44728;SDS011;30457;53.590;9.922;2024-03-22T16:26:31;9.23;;;2.45;;
44728;SDS011;30457;53.590;9.922;2024-03-22T16:30:57;10.45;;;2.55;;
44728;SDS011;30457;53.590;9.922;2024-03-22T16:35:22;11.27;;;2.30;;
44728;SDS011;30457;53.590;9.922;2024-03-22T16:39:48;14.73;;;3.72;;
44728;SDS011;30457;53.590;9.922;2024-03-22T16:44:13;6.40;;;2.40;;
44728;SDS011;30457;53.590;9.922;2024-03-22T16:48:40;14.05;;;3.22;;
44728;SDS011;30457;53.590;9.922;2024-03-22T16:53:06;19.27;;;3.20;;
44728;SDS011;30457;53.590;9.922;2024-03-22T16:57:31;14.10;;;3.30;;
44728;SDS011;30457;53.590;9.922;2024-03-22T17:01:57;11.55;;;2.25;;
44728;SDS011;30457;53.590;9.922;2024-03-22T17:06:23;15.32;;;2.58;;
44728;SDS011;30457;53.590;9.922;2024-03-22T17:10:48;12.68;;;3.25;;
44728;SDS011;30457;53.590;9.922;2024-03-22T17:15:16;19.75;;;4.68;;
44728;SDS011;30457;53.590;9.922;2024-03-22T17:19:42;14.43;;;3.38;;
44728;SDS011;30457;53.590;9.922;2024-03-22T17:24:08;12.77;;;3.38;;
44728;SDS011;30457;53.590;9.922;2024-03-22T17:28:33;8.75;;;3.85;;
44728;SDS011;30457;53.590;9.922;2024-03-22T17:32:59;18.70;;;3.67;;
44728;SDS011;30457;53.590;9.922;2024-03-22T17:37:26;16.05;;;4.55;;
44728;SDS011;30457;53.590;9.922;2024-03-22T17:41:51;21.42;;;4.78;;
44728;SDS011;30457;53.590;9.922;2024-03-22T17:46:17;18.10;;;4.50;;
44728;SDS011;30457;53.590;9.922;2024-03-22T17:50:43;28.00;;;10.27;;
44728;SDS011;30457;53.590;9.922;2024-03-22T17:55:09;19.20;;;5.38;;
44728;SDS011;30457;53.590;9.922;2024-03-22T17:59:35;20.65;;;5.88;;
44728;SDS011;30457;53.590;9.922;2024-03-22T18:04:00;15.40;;;5.60;;
44728;SDS011;30457;53.590;9.922;2024-03-22T18:08:26;9.38;;;2.80;;
44728;SDS011;30457;53.590;9.922;2024-03-22T18:12:51;11.13;;;3.58;;
44728;SDS011;30457;53.590;9.922;2024-03-22T18:17:18;11.63;;;4.05;;
44728;SDS011;30457;53.590;9.922;2024-03-22T18:21:44;15.55;;;4.00;;
44728;SDS011;30457;53.590;9.922;2024-03-22T18:26:09;18.85;;;4.05;;
44728;SDS011;30457;53.590;9.922;2024-03-22T18:30:35;17.77;;;3.47;;
44728;SDS011;30457;53.590;9.922;2024-03-22T18:35:01;15.20;;;4.60;;
44728;SDS011;30457;53.590;9.922;2024-03-22T18:39:27;14.35;;;3.88;;
44728;SDS011;30457;53.590;9.922;2024-03-22T18:43:52;14.95;;;3.38;;
44728;SDS011;30457;53.590;9.922;2024-03-22T18:48:18;13.45;;;3.42;;
44728;SDS011;30457;53.590;9.922;2024-03-22T18:52:44;17.83;;;5.13;;
44728;SDS011;30457;53.590;9.922;2024-03-22T18:57:09;28.48;;;7.55;;
44728;SDS011;30457;53.590;9.922;2024-03-22T19:01:35;36.67;;;12.00;;
44728;SDS011;30457;53.590;9.922;2024-03-22T19:06:00;25.92;;;6.22;;
44728;SDS011;30457;53.590;9.922;2024-03-22T19:10:26;16.73;;;4.18;;
44728;SDS011;30457;53.590;9.922;2024-03-22T19:14:51;13.63;;;4.07;;
44728;SDS011;30457;53.590;9.922;2024-03-22T19:19:17;24.00;;;5.30;;
44728;SDS011;30457;53.590;9.922;2024-03-22T19:23:43;15.55;;;5.18;;
44728;SDS011;30457;53.590;9.922;2024-03-22T19:28:09;16.65;;;4.57;;
44728;SDS011;30457;53.590;9.922;2024-03-22T19:32:35;12.10;;;3.03;;
44728;SDS011;30457;53.590;9.922;2024-03-22T19:37:00;10.20;;;2.80;;
44728;SDS011;30457;53.590;9.922;2024-03-22T19:41:26;16.67;;;2.97;;
44728;SDS011;30457;53.590;9.922;2024-03-22T19:45:52;9.00;;;4.18;;
44728;SDS011;30457;53.590;9.922;2024-03-22T19:50:19;13.13;;;2.70;;
44728;SDS011;30457;53.590;9.922;2024-03-22T19:54:45;15.38;;;4.82;;
44728;SDS011;30457;53.590;9.922;2024-03-22T19:59:10;18.63;;;4.63;;
44728;SDS011;30457;53.590;9.922;2024-03-22T20:03:36;16.75;;;2.95;;
44728;SDS011;30457;53.590;9.922;2024-03-22T20:08:01;13.68;;;3.10;;
44728;SDS011;30457;53.590;9.922;2024-03-22T20:12:27;22.02;;;4.65;;
44728;SDS011;30457;53.590;9.922;2024-03-22T20:16:53;18.85;;;4.28;;
44728;SDS011;30457;53.590;9.922;2024-03-22T20:21:19;15.48;;;2.92;;
44728;SDS011;30457;53.590;9.922;2024-03-22T20:25:44;17.55;;;4.75;;
44728;SDS011;30457;53.590;9.922;2024-03-22T20:30:12;15.63;;;2.85;;
44728;SDS011;30457;53.590;9.922;2024-03-22T20:34:37;16.08;;;2.53;;
